| time (UTC) | temp C | wind direction | speed KPH | gust KPH | rain 1hr cm | rain 24hr cm | rain mn cm | humidity % | barometer mb |
| 20260503180047 | 15 | 236 | 37.0 | 0.0 | 0.00 | 0.00 | 0.00 | 48 | 984.7 |
| 20260503174520 | 15 | 236 | 35.4 | 0.0 | 0.00 | 0.00 | 0.00 | 46 | 985.2 |
| 20260503173040 | 15 | 233 | 37.0 | 0.0 | 0.00 | 0.00 | 0.00 | 44 | 984.5 |
| 20260503081521 | 2 | 199 | 16.1 | 0.0 | 0.00 | 0.00 | 0.00 | 64 | 985.4 |
| 20260503071521 | 2 | 185 | 11.3 | 0.0 | 0.00 | 0.00 | 0.00 | 68 | 985.6 |
| 20260503054521 | 2 | 193 | 9.7 | 0.0 | 0.00 | 0.00 | 0.00 | 65 | 987.0 |
| 20260503051521 | 2 | 185 | 8.0 | 0.0 | 0.00 | 0.00 | 0.00 | 69 | 987.3 |
| 20260503050046 | 2 | 196 | 8.0 | 0.0 | 0.00 | 0.00 | 0.00 | 69 | 987.3 |
| 20260503044521 | 2 | 196 | 8.0 | 0.0 | 0.00 | 0.00 | 0.00 | 66 | 987.6 |
| 20260503043041 | 2 | 193 | 8.0 | 0.0 | 0.00 | 0.00 | 0.00 | 68 | 987.0 |
| 20260503041521 | 2 | 201 | 8.0 | 0.0 | 0.00 | 0.00 | 0.00 | 68 | 987.0 |
| 20260503040049 | 2 | 207 | 9.7 | 0.0 | 0.00 | 0.00 | 0.00 | 68 | 987.0 |
| 20260503034521 | 2 | 212 | 8.0 | 0.0 | 0.00 | 0.00 | 0.00 | 66 | 988.2 |
| 20260503033042 | 2 | 213 | 8.0 | 0.0 | 0.00 | 0.00 | 0.00 | 66 | 988.3 |
| 20260503031521 | 3 | 211 | 9.7 | 0.0 | 0.00 | 0.00 | 0.00 | 66 | 988.3 |
| 20260503030047 | 3 | 217 | 8.0 | 0.0 | 0.00 | 0.00 | 0.00 | 66 | 988.3 |
| 20260503024521 | 3 | 218 | 8.0 | 0.0 | 0.00 | 0.00 | 0.00 | 59 | 989.2 |
| 20260503023040 | 3 | 227 | 8.0 | 0.0 | 0.00 | 0.00 | 0.00 | 63 | 988.7 |
| 20260503021521 | 3 | 233 | 11.3 | 0.0 | 0.00 | 0.00 | 0.00 | 63 | 988.7 |
| 20260503020047 | 4 | 235 | 11.3 | 0.0 | 0.00 | 0.00 | 0.00 | 63 | 988.7 |
| 20260503014521 | 4 | 239 | 11.3 | 0.0 | 0.00 | 0.00 | 0.00 | 52 | 988.2 |
| 20260503013039 | 5 | 241 | 11.3 | 0.0 | 0.00 | 0.00 | 0.00 | 52 | 988.2 |
| 20260503011521 | 5 | 237 | 9.7 | 0.0 | 0.00 | 0.00 | 0.00 | 52 | 988.2 |
| 20260503010045 | 5 | 242 | 9.7 | 0.0 | 0.00 | 0.00 | 0.00 | 52 | 988.2 |
| 20260503004521 | 6 | 245 | 9.7 | 0.0 | 0.00 | 0.00 | 0.00 | 41 | 989.0 |
| 20260503003035 | 6 | 244 | 8.0 | 0.0 | 0.00 | 0.00 | 0.00 | 41 | 989.2 |
| 20260503001521 | 7 | 250 | 8.0 | 0.0 | 0.00 | 0.00 | 0.00 | 41 | 989.2 |
| 20260503000045 | 7 | 263 | 8.0 | 0.0 | 0.00 | 0.00 | 0.00 | 41 | 989.2 |
| 20260502234522 | 8 | 277 | 11.3 | 0.0 | 0.00 | 0.00 | 0.00 | 36 | 989.0 |
| 20260502233034 | 8 | 276 | 12.9 | 0.0 | 0.00 | 0.00 | 0.00 | 35 | 989.1 |
| 20260502231522 | 8 | 274 | 14.5 | 0.0 | 0.00 | 0.00 | 0.00 | 35 | 989.1 |
| 20260502230047 | 8 | 275 | 16.1 | 0.0 | 0.00 | 0.00 | 0.00 | 35 | 989.1 |
| 20260502224521 | 8 | 277 | 17.7 | 0.0 | 0.00 | 0.00 | 0.00 | 36 | 989.4 |
| 20260502223040 | 8 | 276 | 17.7 | 0.0 | 0.00 | 0.00 | 0.00 | 35 | 990.2 |
| 20260502221522 | 8 | 276 | 19.3 | 0.0 | 0.00 | 0.00 | 0.00 | 35 | 990.2 |
| 20260502220045 | 8 | 275 | 20.9 | 0.0 | 0.00 | 0.00 | 0.00 | 35 | 990.2 |
| 20260502214522 | 8 | 276 | 20.9 | 0.0 | 0.00 | 0.00 | 0.00 | 36 | 990.2 |
| 20260502213040 | 8 | 276 | 17.7 | 0.0 | 0.00 | 0.00 | 0.00 | 38 | 989.9 |
| 20260502211522 | 8 | 273 | 17.7 | 0.0 | 0.00 | 0.00 | 0.00 | 38 | 989.9 |
| 20260502210048 | 8 | 272 | 17.7 | 0.0 | 0.00 | 0.00 | 0.00 | 38 | 989.9 |
| 20260502204521 | 8 | 271 | 19.3 | 0.0 | 0.00 | 0.00 | 0.00 | 34 | 990.3 |
| 20260502203039 | 9 | 272 | 17.7 | 0.0 | 0.00 | 0.00 | 0.00 | 34 | 990.8 |
| 20260502201521 | 8 | 274 | 17.7 | 0.0 | 0.00 | 0.00 | 0.00 | 34 | 990.8 |
| 20260502200046 | 8 | 274 | 19.3 | 0.0 | 0.00 | 0.00 | 0.00 | 34 | 990.8 |
| 20260502194521 | 8 | 276 | 19.3 | 0.0 | 0.00 | 0.00 | 0.00 | 33 | 991.0 |
| 20260502193035 | 8 | 277 | 19.3 | 0.0 | 0.00 | 0.00 | 0.00 | 33 | 991.0 |
| 20260502191522 | 8 | 280 | 20.9 | 0.0 | 0.00 | 0.00 | 0.00 | 33 | 991.1 |
| 20260502190046 | 8 | 279 | 19.3 | 0.0 | 0.00 | 0.00 | 0.00 | 33 | 991.1 |
| 20260502184521 | 8 | 279 | 19.3 | 0.0 | 0.00 | 0.00 | 0.00 | 43 | 991.0 |
| 20260502183041 | 8 | 285 | 17.7 | 0.0 | 0.00 | 0.00 | 0.00 | 42 | 991.0 |
| 20260502181521 | 7 | 286 | 17.7 | 0.0 | 0.00 | 0.00 | 0.00 | 42 | 991.0 |